createdAt,value
2023-05-02T00:01:21.723Z,61.60
2023-05-02T00:03:49.048Z,61.70
2023-05-02T00:06:16.183Z,61.90
2023-05-02T00:08:43.393Z,61.90
2023-05-02T00:11:10.425Z,61.90
2023-05-02T00:13:37.426Z,61.80
2023-05-02T00:16:04.799Z,62.00
2023-05-02T00:18:31.766Z,62.00
2023-05-02T00:20:58.698Z,62.10
2023-05-02T00:23:25.690Z,62.10
2023-05-02T00:25:52.619Z,62.00
2023-05-02T00:28:19.560Z,62.10
2023-05-02T00:30:47.232Z,61.90
2023-05-02T00:33:15.872Z,62.20
2023-05-02T00:35:43.005Z,62.30
2023-05-02T00:38:10.052Z,62.10
2023-05-02T00:40:48.240Z,62.00
2023-05-02T00:43:16.240Z,62.20
2023-05-02T00:45:45.570Z,62.30
2023-05-02T00:48:13.220Z,62.30
2023-05-02T00:50:43.524Z,62.40
2023-05-02T00:53:11.244Z,62.20
2023-05-02T00:55:38.781Z,62.10
2023-05-02T00:58:11.732Z,62.10
2023-05-02T01:01:21.349Z,62.00
2023-05-02T01:04:02.501Z,62.00
2023-05-02T01:06:48.463Z,62.10
2023-05-02T01:09:42.401Z,62.20
2023-05-02T01:12:19.878Z,62.30
2023-05-02T01:14:51.865Z,62.00
2023-05-02T01:17:21.366Z,62.30
2023-05-02T01:19:54.111Z,62.00
2023-05-02T01:22:22.507Z,62.10
2023-05-02T01:24:54.536Z,62.30
2023-05-02T01:28:00.181Z,62.30
2023-05-02T01:30:29.505Z,62.30
2023-05-02T01:32:59.102Z,62.20
2023-05-02T01:35:27.884Z,62.30
2023-05-02T01:37:57.462Z,62.40
2023-05-02T01:40:26.457Z,62.40
2023-05-02T01:42:55.080Z,62.30
2023-05-02T01:45:24.027Z,62.20
2023-05-02T01:47:52.074Z,62.00
2023-05-02T01:50:23.295Z,62.10
2023-05-02T01:52:53.624Z,62.10
2023-05-02T01:55:20.803Z,62.20
2023-05-02T01:57:50.562Z,62.40
2023-05-02T02:00:18.801Z,62.10
2023-05-02T02:02:46.713Z,62.10
2023-05-02T02:05:14.775Z,62.30
2023-05-02T02:07:43.621Z,62.00
2023-05-02T02:10:10.929Z,61.90
2023-05-02T02:12:43.901Z,62.10
2023-05-02T02:15:34.366Z,62.10
2023-05-02T02:18:14.744Z,62.30
2023-05-02T02:20:45.121Z,62.00
2023-05-02T02:23:13.470Z,62.30
2023-05-02T02:25:40.915Z,62.20
2023-05-02T02:28:08.259Z,62.30
2023-05-02T02:30:35.377Z,62.40
2023-05-02T02:33:02.434Z,62.40
2023-05-02T02:35:37.459Z,62.40
2023-05-02T02:38:19.433Z,62.30
2023-05-02T02:41:02.642Z,62.30
2023-05-02T02:43:51.099Z,62.30
2023-05-02T02:46:38.379Z,62.10
2023-05-02T02:49:35.726Z,62.70
2023-05-02T02:52:15.609Z,62.70
2023-05-02T02:54:50.193Z,62.10
2023-05-02T02:57:35.800Z,62.60
2023-05-02T03:00:21.254Z,62.40
2023-05-02T03:02:48.901Z,62.60
2023-05-02T03:05:16.556Z,62.50
2023-05-02T03:07:43.882Z,62.40
2023-05-02T03:10:11.969Z,62.60
2023-05-02T03:12:40.323Z,62.50
2023-05-02T03:15:34.033Z,62.50
2023-05-02T03:18:01.644Z,62.50
2023-05-02T03:20:29.181Z,62.20
2023-05-02T03:22:56.176Z,61.90
2023-05-02T03:25:23.113Z,62.40
2023-05-02T03:27:50.740Z,62.30
2023-05-02T03:30:18.047Z,62.00
2023-05-02T03:32:45.303Z,62.20
2023-05-02T03:35:12.708Z,62.10
2023-05-02T03:37:43.800Z,62.30
2023-05-02T03:40:11.228Z,62.10
2023-05-02T03:42:41.428Z,62.20
2023-05-02T03:45:19.682Z,62.40
2023-05-02T03:47:47.749Z,62.30
2023-05-02T03:50:15.383Z,62.80
2023-05-02T03:52:46.885Z,62.60
2023-05-02T03:55:15.115Z,62.50
2023-05-02T03:57:42.194Z,62.30
2023-05-02T04:00:12.510Z,62.10
2023-05-02T04:02:39.537Z,62.20
2023-05-02T04:05:11.113Z,62.40
2023-05-02T04:07:39.332Z,62.30
2023-05-02T04:10:07.970Z,62.40
2023-05-02T04:12:40.148Z,62.40
2023-05-02T04:15:08.089Z,62.40
2023-05-02T04:17:35.039Z,62.60
2023-05-02T04:20:05.364Z,62.50
2023-05-02T04:22:34.909Z,62.60
2023-05-02T04:25:06.479Z,62.40
2023-05-02T04:27:35.705Z,62.20
2023-05-02T04:30:03.496Z,62.10
2023-05-02T04:32:31.501Z,62.00
2023-05-02T04:34:59.951Z,62.20
2023-05-02T04:37:27.187Z,62.20
2023-05-02T04:39:54.134Z,62.10
2023-05-02T04:42:25.094Z,62.10
2023-05-02T04:45:14.662Z,62.20
2023-05-02T04:47:43.761Z,62.10
2023-05-02T04:50:10.910Z,62.30
2023-05-02T04:52:38.076Z,62.20
2023-05-02T04:55:05.691Z,62.00
2023-05-02T04:57:32.652Z,62.20
2023-05-02T05:00:01.593Z,62.40
2023-05-02T05:02:30.512Z,62.00
2023-05-02T05:04:58.264Z,62.10
2023-05-02T05:07:25.718Z,62.20
2023-05-02T05:09:54.228Z,62.40
2023-05-02T05:12:24.068Z,62.30
2023-05-02T05:14:51.133Z,62.30
2023-05-02T05:17:19.695Z,62.10
2023-05-02T05:19:47.362Z,62.20
2023-05-02T05:22:14.294Z,62.10
2023-05-02T05:24:41.648Z,62.00
2023-05-02T05:27:08.640Z,62.00
2023-05-02T05:29:36.199Z,62.00
2023-05-02T05:32:03.365Z,62.30
2023-05-02T05:34:30.994Z,62.00
2023-05-02T05:37:00.888Z,62.10
2023-05-02T05:39:28.258Z,62.00
2023-05-02T05:41:57.603Z,61.90
2023-05-02T05:44:25.859Z,61.90
2023-05-02T05:46:53.117Z,61.60
2023-05-02T05:49:22.393Z,61.90
2023-05-02T05:51:50.133Z,62.00
2023-05-02T05:54:18.916Z,61.60
2023-05-02T05:56:46.312Z,61.80
2023-05-02T05:59:16.987Z,61.50
2023-05-02T06:01:43.954Z,61.90
2023-05-02T06:04:12.360Z,61.50
2023-05-02T06:06:43.488Z,61.40
2023-05-02T06:09:10.663Z,61.50
2023-05-02T06:11:38.353Z,61.30
2023-05-02T06:14:06.505Z,61.30
2023-05-02T06:16:33.854Z,61.50
2023-05-02T06:19:00.941Z,61.60
2023-05-02T06:21:27.913Z,61.10
2023-05-02T06:23:54.968Z,61.10
2023-05-02T06:26:22.191Z,61.40
2023-05-02T06:28:49.539Z,60.60
2023-05-02T06:31:17.095Z,61.00
2023-05-02T06:33:44.071Z,60.00
2023-05-02T06:36:11.044Z,61.50
2023-05-02T06:38:38.132Z,61.20
2023-05-02T06:41:05.056Z,61.10
2023-05-02T06:43:32.937Z,60.80
2023-05-02T06:46:01.378Z,60.70
2023-05-02T06:48:28.328Z,60.70
2023-05-02T06:50:55.407Z,60.80
2023-05-02T06:53:22.384Z,60.50
2023-05-02T06:55:49.666Z,60.20
2023-05-02T06:58:16.959Z,60.70
2023-05-02T07:00:43.934Z,59.80
2023-05-02T07:03:14.050Z,59.90
2023-05-02T07:05:41.486Z,59.80
2023-05-02T07:08:09.336Z,60.00
2023-05-02T07:10:36.769Z,60.00
2023-05-02T07:13:03.895Z,59.70
2023-05-02T07:15:31.055Z,59.70
2023-05-02T07:17:58.032Z,59.90
2023-05-02T07:20:25.070Z,59.60
2023-05-02T07:22:52.034Z,59.90
2023-05-02T07:25:19.080Z,59.40
2023-05-02T07:27:46.396Z,58.80
2023-05-02T07:30:13.696Z,58.60
2023-05-02T07:32:40.873Z,58.90
2023-05-02T07:35:08.905Z,58.30
2023-05-02T07:37:36.435Z,58.60
2023-05-02T07:40:04.588Z,58.50
2023-05-02T07:42:32.030Z,58.60
2023-05-02T07:45:00.091Z,58.20
2023-05-02T07:47:27.583Z,58.30
2023-05-02T07:49:55.788Z,58.00
2023-05-02T07:52:23.061Z,58.10
2023-05-02T07:54:50.684Z,57.30
2023-05-02T07:57:18.346Z,57.40
2023-05-02T07:59:46.056Z,56.70
2023-05-02T08:02:14.039Z,57.70
2023-05-02T08:04:41.453Z,58.20
2023-05-02T08:07:09.112Z,58.00
2023-05-02T08:09:36.154Z,57.40
2023-05-02T08:12:03.331Z,58.10
2023-05-02T08:14:31.617Z,56.50
2023-05-02T08:16:59.811Z,56.90
2023-05-02T08:19:27.252Z,53.90
2023-05-02T08:21:55.032Z,54.70
2023-05-02T08:24:22.571Z,53.50
2023-05-02T08:26:49.920Z,54.30
2023-05-02T08:29:17.160Z,56.40
2023-05-02T08:31:44.180Z,55.90
2023-05-02T08:34:11.189Z,54.50
2023-05-02T08:36:38.180Z,54.40
2023-05-02T08:39:05.311Z,55.00
2023-05-02T08:41:32.468Z,56.90
2023-05-02T08:43:59.985Z,57.20
2023-05-02T08:46:28.664Z,57.30
2023-05-02T08:48:59.115Z,57.20
2023-05-02T08:51:29.145Z,55.90
2023-05-02T08:53:58.161Z,56.00
2023-05-02T08:56:25.373Z,55.40
2023-05-02T08:58:53.299Z,54.10
2023-05-02T09:01:23.969Z,53.00
2023-05-02T09:03:52.417Z,51.80
2023-05-02T09:06:23.082Z,51.10
2023-05-02T09:08:54.489Z,52.20
2023-05-02T09:11:22.213Z,50.40
2023-05-02T09:13:51.487Z,50.00
2023-05-02T09:16:22.857Z,50.60
2023-05-02T09:18:57.859Z,50.20
2023-05-02T09:21:26.788Z,50.40
2023-05-02T09:23:59.114Z,50.40
2023-05-02T09:26:31.079Z,49.80
2023-05-02T09:29:01.043Z,51.00
2023-05-02T09:34:12.556Z,50.50
2023-05-02T09:36:45.125Z,50.70
2023-05-02T09:39:15.100Z,50.50
2023-05-02T09:41:46.835Z,51.10
2023-05-02T09:44:15.759Z,50.40
2023-05-02T09:46:47.422Z,51.20
2023-05-02T09:49:15.154Z,50.80
2023-05-02T09:51:44.034Z,51.20
2023-05-02T09:54:11.382Z,50.50
2023-05-02T09:56:57.787Z,49.80
2023-05-02T09:59:25.747Z,49.90
2023-05-02T10:02:01.443Z,49.70
2023-05-02T10:04:30.961Z,49.10
2023-05-02T10:06:58.606Z,49.70
2023-05-02T10:09:27.506Z,50.10
2023-05-02T10:11:56.590Z,49.70
2023-05-02T10:14:27.810Z,50.00
2023-05-02T10:16:59.486Z,49.10
2023-05-02T10:19:56.925Z,49.00
2023-05-02T10:22:25.068Z,48.10
2023-05-02T10:24:53.343Z,49.10
2023-05-02T10:27:20.496Z,49.50
2023-05-02T10:29:47.638Z,47.70
2023-05-02T10:32:19.253Z,47.80
2023-05-02T10:34:47.628Z,48.10
2023-05-02T10:37:16.092Z,48.50
2023-05-02T10:39:43.168Z,48.60
2023-05-02T10:42:10.678Z,48.70
2023-05-02T10:44:39.946Z,47.80
2023-05-02T10:47:24.027Z,48.40
2023-05-02T10:49:55.638Z,48.50
2023-05-02T10:52:31.661Z,49.10
2023-05-02T10:55:30.979Z,49.20
2023-05-02T10:58:00.566Z,49.20
2023-05-02T11:00:30.213Z,48.80
2023-05-02T11:02:57.560Z,48.30
2023-05-02T11:05:26.305Z,48.40
2023-05-02T11:08:28.162Z,48.20
2023-05-02T11:10:55.136Z,47.60
2023-05-02T11:13:51.600Z,47.70
2023-05-02T11:16:18.717Z,46.70
2023-05-02T11:19:01.496Z,46.70
2023-05-02T11:21:30.159Z,46.50
2023-05-02T11:24:34.172Z,47.80
2023-05-02T11:27:31.373Z,47.90
2023-05-02T11:30:00.013Z,46.60
2023-05-02T11:32:48.803Z,46.90
2023-05-02T11:35:20.297Z,47.10
2023-05-02T11:38:10.491Z,47.80
2023-05-02T11:40:37.557Z,46.90
2023-05-02T11:43:15.604Z,46.70
2023-05-02T11:45:43.776Z,46.30
2023-05-02T11:48:15.751Z,46.80
2023-05-02T11:50:50.611Z,47.10
2023-05-02T11:53:22.332Z,47.50
2023-05-02T11:56:09.625Z,47.10
2023-05-02T11:58:36.603Z,46.80
2023-05-02T12:01:16.464Z,47.60
2023-05-02T12:03:43.919Z,46.40
2023-05-02T12:06:12.671Z,46.60
2023-05-02T12:08:41.537Z,46.60
2023-05-02T12:11:09.371Z,46.20
2023-05-02T12:13:45.955Z,46.40
2023-05-02T12:16:13.520Z,46.40
2023-05-02T12:18:40.996Z,45.90
2023-05-02T12:21:08.678Z,45.60
2023-05-02T12:23:37.409Z,46.20
2023-05-02T12:26:22.069Z,45.00
2023-05-02T12:28:50.910Z,46.30
2023-05-02T12:31:18.427Z,45.50
2023-05-02T12:33:51.010Z,47.40
2023-05-02T12:36:21.078Z,46.70
2023-05-02T12:38:51.013Z,47.70
2023-05-02T12:41:18.026Z,49.20
2023-05-02T12:43:49.244Z,48.30
2023-05-02T12:46:16.557Z,46.00
2023-05-02T12:48:44.954Z,46.90
2023-05-02T12:51:23.878Z,46.80
2023-05-02T12:53:50.909Z,44.70
2023-05-02T12:56:18.052Z,47.70
2023-05-02T12:58:47.295Z,50.00
2023-05-02T13:01:15.490Z,47.10
2023-05-02T13:03:44.046Z,47.80
2023-05-02T13:06:14.307Z,48.40
2023-05-02T13:08:41.618Z,45.70
2023-05-02T13:11:09.151Z,44.00
2023-05-02T13:13:36.215Z,44.00
2023-05-02T13:16:03.701Z,45.10
2023-05-02T13:18:30.846Z,45.00
2023-05-02T13:20:57.808Z,44.50
2023-05-02T13:23:24.811Z,43.80
2023-05-02T13:25:51.832Z,43.60
2023-05-02T13:28:19.183Z,46.60
2023-05-02T13:30:46.181Z,44.10
2023-05-02T13:33:13.315Z,43.20
2023-05-02T13:35:40.624Z,48.00
2023-05-02T13:38:07.665Z,46.40
2023-05-02T13:40:34.767Z,47.40
2023-05-02T13:43:01.685Z,47.90
2023-05-02T13:45:28.769Z,50.20
2023-05-02T13:47:55.789Z,48.70
2023-05-02T13:50:22.835Z,45.60
2023-05-02T13:52:49.795Z,44.60
2023-05-02T13:55:17.042Z,46.20
2023-05-02T13:57:44.156Z,45.90
2023-05-02T14:00:11.824Z,44.80
2023-05-02T14:02:39.397Z,44.40
2023-05-02T14:05:07.149Z,42.70
2023-05-02T14:07:34.092Z,42.50
2023-05-02T14:10:01.382Z,45.60
2023-05-02T14:12:29.048Z,43.50
2023-05-02T14:14:56.157Z,43.10
2023-05-02T14:17:25.234Z,43.30
2023-05-02T14:19:52.539Z,43.70
2023-05-02T14:22:19.488Z,46.60
2023-05-02T14:24:46.697Z,46.60
2023-05-02T14:27:18.149Z,48.40
2023-05-02T14:29:46.571Z,43.10
2023-05-02T14:32:14.215Z,46.50
2023-05-02T14:34:42.067Z,48.20
2023-05-02T14:37:09.383Z,43.90
2023-05-02T14:39:36.946Z,46.80
2023-05-02T14:42:04.690Z,42.40
2023-05-02T14:44:31.853Z,43.50
2023-05-02T14:46:58.932Z,42.60
2023-05-02T14:49:27.130Z,44.00
2023-05-02T14:51:55.641Z,43.70
2023-05-02T14:54:28.642Z,42.20
2023-05-02T14:56:55.967Z,49.30
2023-05-02T14:59:23.389Z,44.70
2023-05-02T15:01:51.938Z,43.20
2023-05-02T15:04:19.938Z,42.40
2023-05-02T15:06:48.228Z,42.50
2023-05-02T15:09:16.153Z,43.40
2023-05-02T15:11:44.146Z,45.80
2023-05-02T15:14:11.135Z,46.40
2023-05-02T15:16:39.296Z,41.60
2023-05-02T15:19:06.416Z,41.70
2023-05-02T15:21:34.226Z,45.30
2023-05-02T15:24:02.577Z,40.70
2023-05-02T15:26:30.158Z,41.00
2023-05-02T15:28:57.160Z,40.90
2023-05-02T15:31:24.449Z,42.40
2023-05-02T15:33:51.778Z,40.70
2023-05-02T15:36:18.948Z,41.00
2023-05-02T15:38:45.928Z,45.60
2023-05-02T15:41:12.863Z,40.70
2023-05-02T15:43:40.004Z,43.90
2023-05-02T15:46:07.033Z,40.30
2023-05-02T15:48:35.092Z,46.20
2023-05-02T15:51:03.190Z,46.00
2023-05-02T15:53:30.349Z,41.10
2023-05-02T15:55:57.419Z,44.20
2023-05-02T15:58:24.394Z,40.80
2023-05-02T16:00:52.566Z,40.40
2023-05-02T16:03:19.986Z,41.20
2023-05-02T16:05:47.300Z,41.70
2023-05-02T16:08:14.267Z,42.90
2023-05-02T16:10:43.425Z,40.30
2023-05-02T16:13:10.874Z,40.30
2023-05-02T16:15:38.637Z,42.60
2023-05-02T16:18:05.895Z,41.10
2023-05-02T16:20:36.493Z,42.60
2023-05-02T16:23:05.436Z,43.00
2023-05-02T16:25:32.716Z,39.80
2023-05-02T16:28:01.075Z,39.80
2023-05-02T16:30:28.505Z,41.10
2023-05-02T16:32:55.526Z,40.80
2023-05-02T16:35:22.664Z,39.90
2023-05-02T16:37:49.916Z,39.80
2023-05-02T16:40:17.046Z,41.10
2023-05-02T16:42:44.127Z,40.30
2023-05-02T16:45:11.263Z,41.60
2023-05-02T16:47:38.566Z,42.40
2023-05-02T16:50:06.662Z,42.50
2023-05-02T16:52:36.846Z,44.50
2023-05-02T16:55:04.744Z,42.20
2023-05-02T16:57:31.706Z,43.80
2023-05-02T16:59:59.212Z,40.70
2023-05-02T17:02:26.724Z,40.90
2023-05-02T17:04:54.056Z,40.30
2023-05-02T17:07:21.225Z,39.90
2023-05-02T17:09:48.393Z,40.20
2023-05-02T17:12:18.746Z,40.30
2023-05-02T17:14:46.141Z,40.80
2023-05-02T17:17:13.073Z,40.60
2023-05-02T17:19:40.234Z,41.30
2023-05-02T17:22:07.309Z,41.10
2023-05-02T17:24:34.674Z,46.20
2023-05-02T17:27:02.823Z,47.30
2023-05-02T17:29:30.179Z,46.80
2023-05-02T17:32:00.053Z,46.60
2023-05-02T17:34:28.885Z,45.80
2023-05-02T17:36:56.316Z,47.60
2023-05-02T17:39:23.441Z,41.80
2023-05-02T17:41:50.700Z,42.10
2023-05-02T17:44:18.528Z,44.30
2023-05-02T17:46:46.701Z,45.60
2023-05-02T17:49:13.773Z,48.20
2023-05-02T17:51:40.957Z,49.00
2023-05-02T17:54:07.967Z,45.60
2023-05-02T17:56:36.747Z,47.00
2023-05-02T17:59:07.039Z,44.30
2023-05-02T18:01:34.090Z,45.10
2023-05-02T18:04:01.463Z,47.20
2023-05-02T18:06:28.774Z,47.00
2023-05-02T18:08:56.169Z,48.50
2023-05-02T18:11:24.425Z,47.30
2023-05-02T18:13:51.965Z,47.80
2023-05-02T18:16:19.738Z,51.30
2023-05-02T18:18:46.804Z,49.50
2023-05-02T18:21:21.565Z,48.40
2023-05-02T18:23:48.787Z,47.80
2023-05-02T18:26:21.346Z,46.00
2023-05-02T18:28:53.163Z,44.30
2023-05-02T18:31:21.200Z,45.30
2023-05-02T18:33:48.326Z,44.60
2023-05-02T18:36:20.705Z,45.80
2023-05-02T18:38:47.734Z,50.10
2023-05-02T18:41:15.445Z,45.00
2023-05-02T18:43:42.660Z,45.70
2023-05-02T18:46:09.803Z,45.30
2023-05-02T18:48:36.991Z,44.50
2023-05-02T18:51:04.728Z,45.60
2023-05-02T18:53:32.202Z,44.50
2023-05-02T18:55:59.306Z,44.70
2023-05-02T18:58:26.868Z,45.00
2023-05-02T19:00:53.970Z,46.00
2023-05-02T19:03:23.928Z,47.00
2023-05-02T19:05:58.793Z,46.90
2023-05-02T19:08:25.723Z,46.60
2023-05-02T19:10:52.638Z,47.50
2023-05-02T19:13:19.972Z,46.10
2023-05-02T19:15:48.099Z,46.50
2023-05-02T19:18:15.415Z,46.60
2023-05-02T19:20:42.448Z,45.60
2023-05-02T19:23:19.749Z,47.00
2023-05-02T19:25:47.324Z,46.50
2023-05-02T19:28:15.953Z,46.00
2023-05-02T19:30:45.762Z,47.20
2023-05-02T19:33:12.890Z,46.80
2023-05-02T19:35:40.289Z,46.90
2023-05-02T19:38:07.430Z,48.20
2023-05-02T19:40:34.508Z,46.90
2023-05-02T19:43:01.489Z,46.90
2023-05-02T19:45:28.525Z,47.40
2023-05-02T19:47:56.266Z,47.10
2023-05-02T19:50:25.739Z,47.10
2023-05-02T19:52:52.923Z,47.80
2023-05-02T19:55:20.807Z,48.40
2023-05-02T19:57:48.804Z,47.40
2023-05-02T20:00:16.220Z,47.80
2023-05-02T20:02:44.808Z,47.60
2023-05-02T20:05:12.313Z,47.30
2023-05-02T20:07:39.220Z,48.80
2023-05-02T20:10:06.864Z,47.30
2023-05-02T20:12:33.850Z,47.30
2023-05-02T20:15:00.812Z,49.50
2023-05-02T20:17:27.758Z,48.10
2023-05-02T20:19:54.829Z,48.30
2023-05-02T20:22:22.132Z,48.20
2023-05-02T20:24:49.141Z,48.50
2023-05-02T20:27:16.111Z,48.70
2023-05-02T20:29:43.215Z,49.50
2023-05-02T20:32:10.419Z,47.90
2023-05-02T20:34:39.149Z,48.60
2023-05-02T20:37:11.712Z,47.30
2023-05-02T20:39:38.909Z,48.40
2023-05-02T20:42:05.942Z,48.40
2023-05-02T20:44:36.605Z,48.40
2023-05-02T20:47:04.023Z,48.80
2023-05-02T20:49:32.410Z,48.70
2023-05-02T20:52:04.991Z,49.20
2023-05-02T20:54:31.881Z,48.50
2023-05-02T20:56:58.875Z,49.00
2023-05-02T20:59:26.101Z,47.90
2023-05-02T21:01:53.091Z,48.60
2023-05-02T21:04:20.299Z,48.60
2023-05-02T21:06:47.596Z,48.80
2023-05-02T21:09:16.027Z,46.70
2023-05-02T21:11:43.636Z,48.30
2023-05-02T21:14:11.843Z,49.10
2023-05-02T21:16:38.829Z,48.50
2023-05-02T21:19:05.783Z,50.40
2023-05-02T21:21:32.788Z,50.60
2023-05-02T21:23:59.927Z,49.10
2023-05-02T21:26:27.019Z,49.20
2023-05-02T21:28:54.081Z,48.60
2023-05-02T21:31:21.183Z,47.30
2023-05-02T21:33:48.156Z,49.10
2023-05-02T21:36:15.461Z,49.40
2023-05-02T21:38:42.464Z,49.70
2023-05-02T21:41:09.563Z,47.50
2023-05-02T21:43:39.468Z,47.70
2023-05-02T21:46:06.788Z,49.20
2023-05-02T21:48:34.261Z,49.00
2023-05-02T21:51:01.821Z,48.30
2023-05-02T21:53:28.787Z,48.10
2023-05-02T21:55:55.777Z,49.00
2023-05-02T21:58:22.677Z,49.10
2023-05-02T22:00:49.857Z,48.90
2023-05-02T22:03:16.899Z,50.10
2023-05-02T22:05:45.480Z,49.40
2023-05-02T22:08:13.519Z,49.20
2023-05-02T22:10:42.482Z,47.40
2023-05-02T22:13:14.043Z,49.30
2023-05-02T22:16:03.979Z,50.20
2023-05-02T22:18:31.029Z,49.80
2023-05-02T22:20:58.688Z,51.60
2023-05-02T22:23:25.728Z,51.90
2023-05-02T22:25:52.965Z,51.80
2023-05-02T22:28:19.941Z,50.20
2023-05-02T22:30:47.076Z,50.90
2023-05-02T22:33:14.260Z,50.10
2023-05-02T22:35:41.404Z,50.40
2023-05-02T22:38:14.524Z,51.10
2023-05-02T22:40:42.210Z,50.60
2023-05-02T22:43:09.212Z,49.70
2023-05-02T22:45:37.348Z,50.70
2023-05-02T22:48:05.679Z,50.20
2023-05-02T22:50:32.714Z,50.40
2023-05-02T22:53:00.212Z,51.10
2023-05-02T22:55:27.255Z,51.20
2023-05-02T22:57:54.253Z,51.80
2023-05-02T23:00:23.603Z,51.70
2023-05-02T23:02:50.615Z,50.00
2023-05-02T23:05:17.592Z,51.30
2023-05-02T23:07:44.737Z,50.90
2023-05-02T23:10:11.650Z,52.20
2023-05-02T23:12:39.191Z,52.20
2023-05-02T23:15:07.261Z,51.00
2023-05-02T23:17:38.288Z,51.30
2023-05-02T23:20:06.349Z,52.20
2023-05-02T23:22:36.580Z,51.50
2023-05-02T23:25:04.023Z,52.00
2023-05-02T23:27:30.930Z,52.00
2023-05-02T23:29:57.967Z,53.40
2023-05-02T23:32:25.168Z,53.20
2023-05-02T23:34:52.115Z,52.30
2023-05-02T23:37:19.062Z,51.00
2023-05-02T23:39:45.979Z,51.10
2023-05-02T23:42:12.936Z,52.00
2023-05-02T23:44:40.251Z,51.10
2023-05-02T23:47:07.551Z,53.10
2023-05-02T23:49:34.552Z,51.30
2023-05-02T23:52:02.739Z,53.20
2023-05-02T23:54:31.949Z,52.60
2023-05-02T23:57:00.726Z,51.40
2023-05-02T23:59:27.645Z,52.60
